Time;durP1;ratioP1;P1;durP2;ratioP2;P2;SDS_P1;SDS_P2;PMS_P1;PMS_P2;Temp;Humidity;BMP_temperature;BMP_pressure;BME280_temperature;BME280_humidity;BME280_pressure;Samples;Min_cycle;Max_cycle;Signal;HPM_P1;HPM_P2
2022/04/11 00:01:21;;;;;;;15.23;3.10;;;5.30;99.90;;;;;;5078387;28;20033;-77
2022/04/11 00:03:47;;;;;;;18.13;3.20;;;5.20;99.90;;;;;;5061084;28;20192;-76
2022/04/11 00:06:12;;;;;;;20.60;2.80;;;5.20;99.90;;;;;;5057039;28;20083;-76
2022/04/11 00:08:38;;;;;;;16.40;2.42;;;5.10;99.90;;;;;;5056508;28;20045;-77
2022/04/11 00:11:04;;;;;;;16.38;2.85;;;5.10;99.90;;;;;;5056326;28;20035;-76
2022/04/11 00:13:29;;;;;;;18.50;3.05;;;5.20;99.90;;;;;;5056454;28;20029;-78
2022/04/11 00:15:55;;;;;;;16.00;3.63;;;5.10;99.90;;;;;;5055781;28;20433;-76
2022/04/11 00:18:20;;;;;;;18.83;3.25;;;5.10;99.90;;;;;;5056465;28;20071;-75
2022/04/11 00:20:47;;;;;;;12.15;3.58;;;5.10;99.90;;;;;;5056357;28;20021;-74
2022/04/11 00:23:13;;;;;;;11.68;2.83;;;5.10;99.90;;;;;;5055918;28;20017;-76
2022/04/11 00:25:39;;;;;;;14.20;3.90;;;5.10;99.90;;;;;;5054780;28;20048;-75
2022/04/11 00:28:04;;;;;;;14.57;2.72;;;5.20;99.90;;;;;;5055379;28;20037;-76
2022/04/11 00:30:30;;;;;;;17.70;3.08;;;5.20;99.90;;;;;;5055074;28;20024;-78
2022/04/11 00:32:55;;;;;;;14.20;3.13;;;5.20;99.90;;;;;;5055808;28;20120;-77
2022/04/11 00:35:21;;;;;;;14.43;2.85;;;5.30;99.90;;;;;;5053618;28;20021;-76
2022/04/11 00:37:47;;;;;;;17.30;3.72;;;5.30;99.90;;;;;;5054917;28;20032;-76
2022/04/11 00:40:13;;;;;;;16.95;3.92;;;5.30;99.90;;;;;;5054344;28;20017;-76
2022/04/11 00:42:39;;;;;;;19.30;3.75;;;5.20;99.90;;;;;;5052923;28;20069;-76
2022/04/11 00:45:05;;;;;;;13.30;2.72;;;5.30;99.90;;;;;;5053720;28;20045;-77
2022/04/11 00:47:31;;;;;;;25.40;4.00;;;5.30;99.90;;;;;;5054562;28;20029;-77
2022/04/11 00:50:23;;;;;;;14.65;3.10;;;5.30;99.90;;;;;;5054369;28;20048;-76
2022/04/11 00:52:51;;;;;;;19.95;4.15;;;5.30;99.90;;;;;;5052974;28;20037;-76
2022/04/11 00:55:20;;;;;;;12.38;3.00;;;5.30;99.90;;;;;;5052588;28;20121;-76
2022/04/11 00:57:47;;;;;;;11.32;3.00;;;5.20;99.90;;;;;;5053004;28;20021;-77
2022/04/11 01:00:13;;;;;;;12.45;3.05;;;5.20;99.90;;;;;;5054235;28;20025;-75
2022/04/11 01:02:39;;;;;;;18.88;3.50;;;5.20;99.90;;;;;;5054280;28;20437;-75
2022/04/11 01:05:09;;;;;;;16.30;3.10;;;5.20;99.90;;;;;;5054161;28;20116;-76
2022/04/11 01:07:37;;;;;;;22.15;3.60;;;5.20;99.90;;;;;;5053794;28;20051;-76
2022/04/11 01:10:08;;;;;;;17.50;3.30;;;5.20;99.90;;;;;;5054106;28;20025;-74
2022/04/11 01:12:33;;;;;;;10.43;3.17;;;5.20;99.90;;;;;;5054562;28;20499;-77
2022/04/11 01:14:59;;;;;;;15.35;3.03;;;5.20;99.90;;;;;;5057060;28;20029;-75
2022/04/11 01:17:35;;;;;;;13.63;3.33;;;5.10;99.90;;;;;;5064835;28;20021;-74
2022/04/11 01:20:08;;;;;;;14.93;3.53;;;5.10;99.90;;;;;;5064197;28;20035;-76
2022/04/11 01:22:34;;;;;;;22.55;3.47;;;5.10;99.90;;;;;;5064843;28;20069;-75
2022/04/11 01:25:01;;;;;;;16.13;3.05;;;5.00;99.90;;;;;;5058665;28;20036;-75
2022/04/11 01:27:27;;;;;;;15.82;3.40;;;5.00;99.90;;;;;;5055611;28;20029;-75
2022/04/11 01:29:53;;;;;;;17.02;3.05;;;5.10;99.90;;;;;;5055224;28;20556;-75
2022/04/11 01:32:18;;;;;;;18.88;3.30;;;5.00;99.90;;;;;;5059099;28;20033;-76
2022/04/11 01:34:44;;;;;;;18.85;3.00;;;5.00;99.90;;;;;;5055090;28;20021;-76
2022/04/11 01:37:09;;;;;;;19.23;3.08;;;4.90;99.90;;;;;;5053502;28;20028;-76
2022/04/11 01:39:37;;;;;;;9.93;2.80;;;4.90;99.90;;;;;;5053718;28;20029;-75
2022/04/11 01:42:03;;;;;;;17.85;2.95;;;4.90;99.90;;;;;;5053713;28;20123;-77
2022/04/11 01:44:28;;;;;;;15.68;3.75;;;4.90;99.90;;;;;;5055824;28;20126;-77
2022/04/11 01:46:54;;;;;;;15.13;2.88;;;4.90;99.90;;;;;;5054547;28;20155;-76
2022/04/11 01:49:19;;;;;;;15.35;3.22;;;4.80;99.90;;;;;;5053729;28;20503;-76
2022/04/11 01:51:45;;;;;;;17.42;3.53;;;4.80;99.90;;;;;;5053185;28;20025;-76
2022/04/11 01:54:10;;;;;;;20.30;3.85;;;4.80;99.90;;;;;;5053134;28;20363;-75
2022/04/11 01:56:36;;;;;;;11.98;3.33;;;4.80;99.90;;;;;;5052674;28;20118;-77
2022/04/11 01:59:02;;;;;;;27.95;4.80;;;4.80;99.90;;;;;;5053056;28;20071;-74
2022/04/11 02:01:27;;;;;;;12.57;2.95;;;4.80;99.90;;;;;;5053055;28;20068;-76
2022/04/11 02:03:53;;;;;;;18.38;3.38;;;4.70;99.90;;;;;;5053158;28;20024;-75
2022/04/11 02:06:18;;;;;;;16.98;2.80;;;4.70;99.90;;;;;;5053018;28;20035;-75
2022/04/11 02:08:44;;;;;;;11.95;3.13;;;4.70;99.90;;;;;;5052883;28;20029;-74
2022/04/11 02:11:11;;;;;;;15.50;2.78;;;4.70;99.90;;;;;;5055328;28;20371;-76
2022/04/11 02:13:36;;;;;;;11.80;2.80;;;4.70;99.90;;;;;;5054855;28;20562;-74
2022/04/11 02:16:02;;;;;;;22.80;3.28;;;4.70;99.90;;;;;;5053999;28;20100;-76
2022/04/11 02:18:27;;;;;;;14.13;2.60;;;4.70;99.90;;;;;;5053436;28;20017;-77
2022/04/11 02:20:53;;;;;;;19.40;3.30;;;4.70;99.90;;;;;;5055936;28;20355;-76
2022/04/11 02:23:18;;;;;;;14.05;2.72;;;4.70;99.90;;;;;;5054355;28;20036;-75
2022/04/11 02:25:44;;;;;;;13.75;2.83;;;4.70;99.90;;;;;;5053976;28;20416;-76
2022/04/11 02:28:10;;;;;;;10.45;3.42;;;4.70;99.90;;;;;;5056536;28;20052;-76
2022/04/11 02:30:36;;;;;;;10.52;2.90;;;4.70;99.90;;;;;;5055216;28;20057;-76
2022/04/11 02:33:02;;;;;;;10.95;2.80;;;4.70;99.90;;;;;;5053515;28;20049;-76
2022/04/11 02:35:28;;;;;;;15.38;3.60;;;4.70;99.90;;;;;;5072950;28;20041;-78
2022/04/11 02:37:53;;;;;;;18.08;2.95;;;4.80;99.90;;;;;;5077783;28;20036;-78
2022/04/11 02:40:19;;;;;;;15.18;2.78;;;4.80;99.90;;;;;;5066481;28;20134;-76
2022/04/11 02:42:45;;;;;;;15.27;3.67;;;4.80;99.90;;;;;;5037058;22;20088;-73
2022/04/11 02:45:12;;;;;;;15.93;3.45;;;4.80;99.90;;;;;;5013186;28;20026;-73
2022/04/11 02:47:38;;;;;;;14.75;3.00;;;4.80;99.90;;;;;;5013078;28;20025;-74
2022/04/11 02:50:04;;;;;;;15.57;3.20;;;4.80;99.90;;;;;;5012921;28;20105;-74
2022/04/11 02:52:30;;;;;;;20.73;3.45;;;4.80;99.90;;;;;;5012750;28;20022;-74
2022/04/11 02:54:56;;;;;;;16.05;3.10;;;4.70;99.90;;;;;;5012863;28;20026;-73
2022/04/11 02:57:23;;;;;;;18.67;4.10;;;4.70;99.90;;;;;;5013507;28;20022;-73
2022/04/11 02:59:49;;;;;;;16.75;3.15;;;4.70;99.90;;;;;;5013392;28;20138;-74
2022/04/11 03:02:14;;;;;;;11.77;3.35;;;4.60;99.90;;;;;;5012910;28;20058;-75
2022/04/11 03:04:40;;;;;;;20.88;3.65;;;4.60;99.90;;;;;;5012950;28;20026;-74
2022/04/11 03:07:06;;;;;;;11.10;2.67;;;6.10;99.90;;;;;;5010715;28;20084;-74
2022/04/11 03:09:32;;;;;;;14.35;3.28;;;4.50;99.90;;;;;;5013064;28;20653;-73
2022/04/11 03:11:58;;;;;;;12.52;3.10;;;4.50;99.90;;;;;;5012692;28;20036;-74
2022/04/11 03:14:23;;;;;;;13.02;3.30;;;4.40;99.90;;;;;;5012507;28;20054;-73
2022/04/11 03:16:49;;;;;;;10.68;3.38;;;4.40;99.90;;;;;;5012385;28;20517;-74
2022/04/11 03:19:15;;;;;;;15.60;3.63;;;4.40;99.90;;;;;;5012705;28;20030;-74
2022/04/11 03:21:40;;;;;;;14.77;3.40;;;4.40;99.90;;;;;;5011313;28;20072;-74
2022/04/11 03:24:06;;;;;;;20.67;3.38;;;4.40;99.90;;;;;;5012707;28;20033;-74
2022/04/11 03:26:32;;;;;;;15.27;3.03;;;4.40;99.90;;;;;;5013278;28;20544;-74
2022/04/11 03:28:57;;;;;;;18.10;3.30;;;4.30;99.90;;;;;;5015923;28;20029;-74
2022/04/11 03:31:23;;;;;;;15.82;3.28;;;4.30;99.90;;;;;;5015866;28;20034;-74
2022/04/11 03:33:48;;;;;;;12.25;3.03;;;4.30;99.90;;;;;;5015880;28;20022;-74
2022/04/11 03:36:14;;;;;;;13.00;3.13;;;4.20;99.90;;;;;;5014810;28;20026;-74
2022/04/11 03:38:39;;;;;;;13.98;3.10;;;4.20;99.90;;;;;;5012116;28;20026;-73
2022/04/11 03:41:05;;;;;;;15.20;3.25;;;4.20;99.90;;;;;;5010839;28;20040;-74
2022/04/11 03:43:30;;;;;;;19.88;3.22;;;4.20;99.90;;;;;;5012362;28;20117;-74
2022/04/11 03:45:56;;;;;;;9.68;2.92;;;4.10;99.90;;;;;;5010838;28;20064;-74
2022/04/11 03:48:22;;;;;;;16.70;3.67;;;4.10;99.90;;;;;;5011259;28;20045;-73
2022/04/11 03:50:47;;;;;;;14.23;3.28;;;4.10;99.90;;;;;;5011956;28;20037;-74
2022/04/11 03:53:13;;;;;;;19.13;3.60;;;4.10;99.90;;;;;;5014570;28;20060;-73
2022/04/11 03:55:39;;;;;;;14.15;3.42;;;4.00;99.90;;;;;;5019920;28;20022;-73
2022/04/11 03:58:04;;;;;;;19.48;3.30;;;4.10;99.90;;;;;;5019921;28;20108;-73
2022/04/11 04:00:30;;;;;;;20.13;4.05;;;4.00;99.90;;;;;;5017190;28;20034;-72
2022/04/11 04:03:10;;;;;;;14.32;3.17;;;4.00;99.90;;;;;;5014834;28;20041;-72
2022/04/11 04:05:40;;;;;;;17.08;3.78;;;4.00;99.90;;;;;;5017270;28;20076;-73
2022/04/11 04:08:06;;;;;;;15.30;3.25;;;4.00;99.90;;;;;;5017585;28;20031;-74
2022/04/11 04:10:32;;;;;;;9.95;3.13;;;4.00;99.90;;;;;;5022073;28;20034;-73
2022/04/11 04:13:01;;;;;;;11.38;3.60;;;4.00;99.90;;;;;;5018462;28;20033;-74
2022/04/11 04:15:26;;;;;;;17.17;4.07;;;4.00;99.90;;;;;;5017814;28;20033;-74
2022/04/11 04:17:53;;;;;;;18.65;3.83;;;3.90;99.90;;;;;;5011105;28;20022;-74
2022/04/11 04:20:19;;;;;;;14.73;3.75;;;3.90;99.90;;;;;;5015322;28;20022;-76
2022/04/11 04:22:44;;;;;;;16.00;4.00;;;3.90;99.90;;;;;;5016183;28;20048;-75
2022/04/11 04:25:10;;;;;;;15.95;4.03;;;3.90;99.90;;;;;;5016395;28;20030;-74
2022/04/11 04:27:36;;;;;;;17.35;3.40;;;4.00;99.90;;;;;;5014765;28;20044;-75
2022/04/11 04:30:01;;;;;;;22.17;5.07;;;4.00;99.90;;;;;;5014846;28;20282;-74
2022/04/11 04:32:27;;;;;;;19.95;4.15;;;4.00;99.90;;;;;;5015273;28;20052;-74
2022/04/11 04:34:53;;;;;;;18.33;4.18;;;4.00;99.90;;;;;;5017973;28;20022;-73
2022/04/11 04:37:18;;;;;;;11.35;3.53;;;3.90;99.90;;;;;;5017751;28;20109;-74
2022/04/11 04:39:44;;;;;;;17.48;3.65;;;3.90;99.90;;;;;;5015779;28;20022;-74
2022/04/11 04:42:09;;;;;;;20.05;3.60;;;3.90;99.90;;;;;;5015121;28;20038;-75
2022/04/11 04:44:41;;;;;;;17.52;3.85;;;4.00;99.90;;;;;;5023422;28;20034;-75
2022/04/11 04:47:07;;;;;;;17.77;4.38;;;4.00;99.90;;;;;;5013745;28;20018;-74
2022/04/11 04:49:33;;;;;;;17.10;4.28;;;3.90;99.90;;;;;;5012708;28;20030;-74
2022/04/11 04:51:59;;;;;;;13.50;3.72;;;4.00;99.90;;;;;;5013536;28;20041;-75
2022/04/11 04:54:24;;;;;;;13.38;3.92;;;4.00;99.90;;;;;;5013509;28;20026;-75
2022/04/11 04:56:50;;;;;;;17.17;3.72;;;4.00;99.90;;;;;;5014220;28;20104;-74
2022/04/11 04:59:16;;;;;;;21.33;4.82;;;4.00;99.90;;;;;;5013549;28;20022;-75
2022/04/11 05:01:41;;;;;;;17.05;4.15;;;4.10;99.90;;;;;;5015958;28;20502;-75
2022/04/11 05:04:07;;;;;;;24.27;4.15;;;4.10;99.90;;;;;;5013865;28;20594;-74
2022/04/11 05:06:33;;;;;;;16.60;4.05;;;4.10;99.90;;;;;;5018031;28;20058;-74
2022/04/11 05:08:59;;;;;;;29.15;5.13;;;4.10;99.90;;;;;;5018879;28;20030;-75
2022/04/11 05:11:25;;;;;;;13.45;4.13;;;4.20;99.90;;;;;;5017223;28;20036;-73
2022/04/11 05:13:50;;;;;;;21.90;4.47;;;4.20;99.90;;;;;;5017365;28;20360;-76
2022/04/11 05:16:18;;;;;;;13.82;3.50;;;4.20;99.90;;;;;;5017046;28;20029;-76
2022/04/11 05:18:44;;;;;;;16.33;4.40;;;4.30;99.90;;;;;;5018023;28;20049;-75
2022/04/11 05:21:10;;;;;;;16.10;4.55;;;4.30;99.90;;;;;;5022126;28;20077;-75
2022/04/11 05:23:35;;;;;;;12.00;3.90;;;4.40;99.90;;;;;;5018085;28;20517;-72
2022/04/11 05:26:02;;;;;;;15.27;3.78;;;4.50;99.90;;;;;;5017791;28;20102;-74
2022/04/11 05:28:27;;;;;;;13.65;3.55;;;4.50;99.90;;;;;;5017734;28;20564;-76
2022/04/11 05:30:53;;;;;;;10.68;3.50;;;4.60;99.90;;;;;;5016166;28;20026;-74
2022/04/11 05:33:18;;;;;;;12.88;3.97;;;4.60;99.90;;;;;;5015516;28;20036;-74
2022/04/11 05:35:44;;;;;;;12.15;3.92;;;4.70;99.90;;;;;;5014875;28;20406;-75
2022/04/11 05:38:09;;;;;;;17.30;4.07;;;4.70;99.90;;;;;;5014025;28;20156;-75
2022/04/11 05:40:35;;;;;;;11.50;3.67;;;4.70;99.90;;;;;;5014241;28;20029;-75
2022/04/11 05:43:00;;;;;;;17.85;4.18;;;4.80;99.90;;;;;;5014243;28;20034;-75
2022/04/11 05:45:26;;;;;;;23.50;4.47;;;4.90;99.90;;;;;;5012931;28;20025;-74
2022/04/11 05:47:51;;;;;;;12.25;3.88;;;4.90;99.90;;;;;;5012523;28;20565;-73
2022/04/11 05:50:17;;;;;;;28.40;4.35;;;5.00;99.90;;;;;;5014103;28;20040;-73
2022/04/11 05:52:43;;;;;;;17.20;3.85;;;5.10;99.90;;;;;;5014026;28;20391;-75
2022/04/11 05:55:08;;;;;;;19.17;3.90;;;5.20;99.90;;;;;;5015428;28;20022;-74
2022/04/11 05:57:34;;;;;;;16.67;6.05;;;5.30;99.90;;;;;;5014723;28;20136;-74
2022/04/11 05:59:59;;;;;;;23.10;5.38;;;5.40;99.90;;;;;;5015184;28;20080;-73
2022/04/11 06:02:25;;;;;;;14.55;4.88;;;5.50;99.90;;;;;;5015292;28;20511;-73
2022/04/11 06:04:50;;;;;;;19.98;4.78;;;5.50;99.90;;;;;;5019494;28;20430;-73
2022/04/11 06:07:20;;;;;;;18.00;3.88;;;5.60;99.90;;;;;;5017194;28;20030;-74
2022/04/11 06:09:46;;;;;;;15.75;4.32;;;5.70;99.90;;;;;;5016458;28;20069;-74
2022/04/11 06:12:12;;;;;;;14.65;3.92;;;5.70;99.90;;;;;;5015256;28;20483;-73
2022/04/11 06:14:37;;;;;;;18.52;4.60;;;5.80;99.90;;;;;;5016773;28;20387;-75
2022/04/11 06:17:03;;;;;;;21.20;4.20;;;5.90;99.90;;;;;;5015332;28;20026;-74
2022/04/11 06:19:29;;;;;;;11.43;3.75;;;5.90;99.90;;;;;;5026029;28;20399;-74
2022/04/11 06:21:54;;;;;;;20.92;4.43;;;6.10;99.90;;;;;;5013380;28;20029;-73
2022/04/11 06:24:20;;;;;;;17.27;3.80;;;6.10;99.90;;;;;;4994103;28;20329;-73
2022/04/11 06:26:45;;;;;;;11.05;3.60;;;6.20;99.90;;;;;;4993666;28;20030;-72
2022/04/11 06:29:11;;;;;;;20.83;3.88;;;6.40;99.90;;;;;;4993361;28;20022;-73
2022/04/11 06:31:36;;;;;;;19.70;4.10;;;6.50;99.90;;;;;;4993641;28;20030;-73
2022/04/11 06:34:03;;;;;;;15.32;4.68;;;6.70;99.90;;;;;;4993688;28;20034;-73
2022/04/11 06:36:28;;;;;;;13.25;3.40;;;6.80;99.90;;;;;;4994540;28;20023;-74
2022/04/11 06:38:54;;;;;;;18.23;3.90;;;7.00;99.90;;;;;;4994194;28;20029;-75
2022/04/11 06:41:19;;;;;;;17.90;3.85;;;7.10;99.90;;;;;;4993829;28;20034;-74
2022/04/11 06:43:45;;;;;;;15.45;3.88;;;7.20;99.90;;;;;;4998085;28;20039;-74
2022/04/11 06:46:10;;;;;;;21.65;4.50;;;7.30;99.90;;;;;;4999548;28;20018;-74
2022/04/11 06:48:36;;;;;;;15.95;3.58;;;7.40;99.90;;;;;;4993658;28;20019;-74
2022/04/11 06:51:02;;;;;;;15.43;3.88;;;7.40;99.90;;;;;;4994316;28;20034;-76
2022/04/11 06:53:27;;;;;;;21.33;3.90;;;7.50;99.90;;;;;;4993578;28;20030;-75
2022/04/11 06:55:53;;;;;;;11.30;3.40;;;7.50;99.90;;;;;;4993416;28;20022;-73
2022/04/11 06:58:19;;;;;;;17.50;3.42;;;7.60;99.90;;;;;;4993311;28;20030;-74
2022/04/11 07:00:45;;;;;;;19.58;4.05;;;7.70;99.90;;;;;;4995794;28;20029;-76
2022/04/11 07:03:11;;;;;;;23.23;4.22;;;7.80;99.90;;;;;;4996030;28;20080;-74
2022/04/11 07:05:40;;;;;;;14.35;4.63;;;8.00;99.90;;;;;;4998116;28;20109;-75
2022/04/11 07:08:06;;;;;;;27.23;6.47;;;8.10;99.90;;;;;;4998620;28;20243;-76
2022/04/11 07:10:32;;;;;;;24.25;6.75;;;8.20;99.90;;;;;;5000288;28;20026;-74
2022/04/11 07:12:59;;;;;;;26.65;4.25;;;8.30;99.90;;;;;;4999635;28;20036;-73
2022/04/11 07:15:24;;;;;;;23.27;3.58;;;8.30;99.90;;;;;;4994356;28;20498;-74
2022/04/11 07:17:50;;;;;;;23.83;4.20;;;8.30;99.90;;;;;;4994521;28;20030;-74
2022/04/11 07:20:15;;;;;;;19.27;3.90;;;8.40;99.90;;;;;;4993569;28;20112;-78
2022/04/11 07:22:41;;;;;;;17.45;3.95;;;8.50;99.90;;;;;;4993253;28;20105;-75
2022/04/11 07:25:07;;;;;;;10.93;3.65;;;8.60;99.90;;;;;;4996239;28;20110;-74
2022/04/11 07:27:33;;;;;;;20.10;4.07;;;8.60;99.90;;;;;;4993017;28;20034;-73
2022/04/11 07:29:58;;;;;;;16.48;4.35;;;8.70;99.90;;;;;;4993703;28;20022;-75
2022/04/11 07:32:24;;;;;;;22.38;4.38;;;8.80;99.90;;;;;;4994911;28;20046;-74
2022/04/11 07:34:49;;;;;;;18.08;4.15;;;8.90;99.90;;;;;;4996590;28;20018;-73
2022/04/11 07:37:15;;;;;;;19.75;4.35;;;9.00;99.90;;;;;;4994547;28;20038;-73
2022/04/11 07:39:41;;;;;;;30.52;4.13;;;9.00;99.90;;;;;;4993604;28;20077;-74
2022/04/11 07:42:06;;;;;;;19.48;4.30;;;8.90;99.90;;;;;;4993238;28;20038;-75
2022/04/11 07:44:32;;;;;;;14.57;4.30;;;9.00;99.90;;;;;;4992932;28;20033;-74
2022/04/11 07:46:57;;;;;;;18.50;4.40;;;9.00;99.90;;;;;;4992634;28;20034;-74
2022/04/11 07:49:23;;;;;;;20.02;4.20;;;9.00;99.90;;;;;;4991834;28;20023;-75
2022/04/11 07:51:48;;;;;;;33.55;13.18;;;9.00;99.90;;;;;;4995241;28;20030;-75
2022/04/11 07:54:14;;;;;;;24.95;4.65;;;9.10;99.90;;;;;;4995889;28;20053;-74
2022/04/11 07:56:39;;;;;;;21.20;4.38;;;9.10;99.90;;;;;;4996765;28;20029;-75
2022/04/11 07:59:05;;;;;;;19.23;4.07;;;9.20;99.90;;;;;;4996440;28;20141;-76
2022/04/11 08:01:30;;;;;;;18.90;4.20;;;9.30;99.90;;;;;;4996604;28;20165;-74
2022/04/11 08:03:56;;;;;;;27.25;4.97;;;9.50;99.90;;;;;;4996223;28;20054;-75
2022/04/11 08:06:21;;;;;;;24.27;5.25;;;9.60;99.90;;;;;;4995978;28;20110;-75
2022/04/11 08:08:47;;;;;;;21.65;4.38;;;9.70;99.90;;;;;;4996944;28;20045;-74
2022/04/11 08:11:15;;;;;;;14.60;4.10;;;9.80;99.90;;;;;;5002002;28;20022;-74
2022/04/11 08:13:40;;;;;;;20.70;3.67;;;9.90;99.90;;;;;;5005095;28;20026;-75
2022/04/11 08:16:06;;;;;;;22.50;3.85;;;10.00;99.90;;;;;;5002640;28;20264;-75
2022/04/11 08:18:32;;;;;;;20.48;4.57;;;10.00;99.90;;;;;;5002730;28;20026;-75
2022/04/11 08:20:57;;;;;;;23.98;3.90;;;10.10;99.90;;;;;;5020115;28;20022;-75
2022/04/11 08:23:23;;;;;;;24.45;4.78;;;10.10;99.90;;;;;;5019866;28;20023;-76
2022/04/11 08:25:49;;;;;;;16.10;3.72;;;10.20;99.90;;;;;;5020645;28;20066;-77
2022/04/11 08:28:15;;;;;;;21.98;4.28;;;10.30;99.90;;;;;;5020928;28;20006;-77
2022/04/11 08:30:41;;;;;;;18.98;3.75;;;10.40;99.90;;;;;;5020568;28;20049;-75
2022/04/11 08:33:07;;;;;;;20.23;4.07;;;10.40;99.90;;;;;;5014377;28;20078;-74
2022/04/11 08:35:33;;;;;;;15.70;4.55;;;10.40;99.90;;;;;;5010383;28;20022;-74
2022/04/11 08:37:59;;;;;;;18.60;4.38;;;10.60;99.90;;;;;;5009359;28;20360;-74
2022/04/11 08:40:24;;;;;;;11.35;3.53;;;10.60;99.90;;;;;;5001556;28;20054;-74
2022/04/11 08:42:50;;;;;;;16.02;4.00;;;;;;;;;;4996056;28;20092;-75
2022/04/11 08:45:19;;;;;;;14.88;3.25;;;10.90;99.90;;;;;;4996852;28;20030;-75
2022/04/11 08:47:47;;;;;;;22.20;3.70;;;11.00;99.90;;;;;;4996960;28;20029;-74
2022/04/11 08:50:13;;;;;;;22.17;3.95;;;11.10;99.90;;;;;;4995617;28;20046;-74
2022/04/11 08:52:40;;;;;;;18.02;3.72;;;11.20;99.90;;;;;;4994588;28;20089;-75
2022/04/11 08:55:07;;;;;;;15.63;3.42;;;11.30;99.90;;;;;;4998705;28;20395;-73
2022/04/11 08:57:34;;;;;;;13.43;3.20;;;11.40;99.90;;;;;;4998198;28;20019;-75
2022/04/11 09:00:11;;;;;;;14.38;2.80;;;11.50;99.90;;;;;;4996279;28;20020;-74
2022/04/11 09:02:38;;;;;;;14.85;2.97;;;11.50;99.90;;;;;;4995755;28;20088;-74
2022/04/11 09:05:04;;;;;;;13.98;3.13;;;11.50;99.90;;;;;;4993618;28;20030;-74
2022/04/11 09:07:44;;;;;;;12.68;3.10;;;11.60;99.90;;;;;;4995043;28;20026;-74
2022/04/11 09:10:10;;;;;;;11.40;3.10;;;11.90;99.90;;;;;;5001208;28;20387;-74
2022/04/11 09:12:46;;;;;;;16.15;3.13;;;12.30;99.90;;;;;;4998965;28;20032;-73
2022/04/11 09:15:11;;;;;;;17.17;3.42;;;12.40;99.90;;;;;;4995328;28;20057;-75
2022/04/11 09:17:42;;;;;;;12.52;3.22;;;12.70;99.90;;;;;;4994830;28;20034;-75
2022/04/11 09:20:13;;;;;;;11.55;3.30;;;13.30;99.90;;;;;;4994141;28;20022;-75
2022/04/11 09:22:39;;;;;;;12.65;2.58;;;14.10;99.90;;;;;;4997224;28;20022;-75
2022/04/11 09:25:10;;;;;;;13.90;3.47;;;14.90;99.90;;;;;;4996985;28;20034;-75
2022/04/11 09:27:35;;;;;;;8.13;2.63;;;15.50;99.90;;;;;;4997469;28;20033;-74
2022/04/11 09:30:01;;;;;;;12.80;2.65;;;15.90;98.80;;;;;;4996991;28;20026;-74
2022/04/11 09:32:28;;;;;;;12.60;3.95;;;15.70;97.90;;;;;;4995380;28;20320;-74
2022/04/11 09:34:58;;;;;;;17.77;3.17;;;15.80;97.60;;;;;;5010996;28;20042;-73
2022/04/11 09:37:30;;;;;;;18.42;3.95;;;15.90;96.30;;;;;;5005179;28;20057;-74
2022/04/11 09:39:59;;;;;;;14.05;2.90;;;15.70;95.50;;;;;;4999154;28;20035;-75
2022/04/11 09:42:31;;;;;;;10.57;2.33;;;15.30;93.60;;;;;;4996007;28;20061;-74
2022/04/11 09:45:00;;;;;;;10.38;2.35;;;14.90;93.40;;;;;;4995519;28;20383;-74
2022/04/11 09:47:26;;;;;;;14.82;2.60;;;14.40;90.80;;;;;;4994207;28;20372;-73
2022/04/11 09:49:53;;;;;;;15.93;3.03;;;14.10;92.90;;;;;;4994767;28;20038;-74
2022/04/11 09:52:19;;;;;;;7.82;2.05;;;14.10;94.70;;;;;;4994578;28;20063;-74
2022/04/11 09:54:52;;;;;;;9.63;2.47;;;14.00;95.10;;;;;;4997509;28;20014;-77
2022/04/11 09:57:18;;;;;;;11.75;2.83;;;14.00;94.70;;;;;;4998072;28;20030;-74
2022/04/11 09:59:45;;;;;;;10.70;3.22;;;13.90;95.40;;;;;;4995761;28;20027;-75
2022/04/11 10:02:12;;;;;;;10.77;3.25;;;13.80;95.10;;;;;;4994806;28;20419;-75
2022/04/11 10:04:39;;;;;;;11.35;2.85;;;13.80;95.60;;;;;;4993662;28;20464;-75
2022/04/11 10:07:10;;;;;;;10.35;3.22;;;13.90;94.80;;;;;;4993574;28;20491;-74
2022/04/11 10:09:39;;;;;;;7.82;2.40;;;14.00;93.80;;;;;;4998422;28;20026;-73
2022/04/11 10:12:05;;;;;;;21.60;3.47;;;13.90;94.50;;;;;;4995883;28;20029;-74
2022/04/11 10:14:31;;;;;;;13.20;3.85;;;13.80;95.80;;;;;;4995641;28;20029;-75
2022/04/11 10:17:00;;;;;;;11.52;2.90;;;13.90;97.10;;;;;;5000674;28;20034;-75
2022/04/11 10:19:33;;;;;;;14.55;4.25;;;14.10;99.90;;;;;;5004984;28;20026;-74
2022/04/11 10:22:06;;;;;;;15.65;3.70;;;14.20;99.90;;;;;;5004311;28;20026;-74
2022/04/11 10:24:58;;;;;;;12.02;3.40;;;14.40;99.90;;;;;;5005412;28;20109;-74
2022/04/11 10:27:25;;;;;;;14.10;3.25;;;14.40;99.90;;;;;;5005423;28;20029;-74
2022/04/11 10:29:52;;;;;;;10.55;3.00;;;14.50;99.90;;;;;;5000279;28;20110;-74
2022/04/11 10:32:24;;;;;;;19.67;3.85;;;14.60;99.90;;;;;;5002154;28;20022;-74
2022/04/11 10:35:05;;;;;;;12.38;3.63;;;14.60;99.90;;;;;;4999843;28;20045;-76
2022/04/11 10:37:40;;;;;;;18.70;3.75;;;14.70;99.90;;;;;;4998295;28;20023;-75
2022/04/11 10:40:19;;;;;;;;;;;14.60;99.90;;;;;;5001987;28;20038;-74
2022/04/11 10:43:00;;;;;;;15.13;2.97;;;14.60;99.90;;;;;;4998463;28;19920;-75
2022/04/11 10:45:31;;;;;;;11.85;2.72;;;14.70;99.90;;;;;;5001700;28;20378;-74
2022/04/11 10:47:56;;;;;;;10.60;2.42;;;14.60;99.50;;;;;;5000638;28;20506;-75
2022/04/11 10:50:24;;;;;;;7.90;2.65;;;14.40;96.40;;;;;;4995334;28;20026;-74
2022/04/11 10:52:55;;;;;;;13.75;3.47;;;14.30;96.20;;;;;;4995702;28;20061;-77
2022/04/11 10:55:22;;;;;;;12.35;2.80;;;14.40;96.80;;;;;;4998672;28;20182;-74
2022/04/11 10:57:55;;;;;;;11.30;2.95;;;14.40;95.90;;;;;;4998526;28;20030;-74
2022/04/11 11:00:22;;;;;;;8.77;2.58;;;14.40;95.60;;;;;;4994489;28;20380;-75
2022/04/11 11:02:52;;;;;;;11.35;2.45;;;14.50;94.10;;;;;;4996938;28;20027;-74
2022/04/11 11:05:38;;;;;;;15.88;3.47;;;14.70;93.60;;;;;;5000893;28;20022;-74
2022/04/11 11:08:13;;;;;;;10.20;3.25;;;14.60;92.50;;;;;;4996495;28;20029;-75
2022/04/11 11:10:38;;;;;;;12.05;2.88;;;14.70;93.00;;;;;;4996047;28;20110;-73
2022/04/11 11:13:30;;;;;;;7.72;2.40;;;14.70;91.40;;;;;;4995297;28;20058;-74
2022/04/11 11:15:59;;;;;;;15.35;3.13;;;14.90;91.60;;;;;;4993761;28;20106;-75
2022/04/11 11:21:17;;;;;;;13.70;3.10;;;15.10;93.40;;;;;;4993444;28;20035;-75
2022/04/11 11:24:02;;;;;;;13.73;3.08;;;15.50;92.80;;;;;;4993424;28;20041;-74
2022/04/11 11:26:29;;;;;;;9.18;2.40;;;15.80;90.30;;;;;;4993549;28;20058;-74
2022/04/11 11:28:55;;;;;;;7.30;2.33;;;16.00;87.10;;;;;;4995500;28;20436;-74
2022/04/11 11:31:22;;;;;;;9.48;2.28;;;16.30;87.30;;;;;;4996923;28;20081;-74
2022/04/11 11:33:51;;;;;;;12.95;2.30;;;16.70;82.50;;;;;;4997323;28;20027;-74
2022/04/11 11:36:17;;;;;;;7.80;2.17;;;17.00;82.00;;;;;;4996606;28;20114;-74
2022/04/11 11:38:42;;;;;;;14.20;5.53;;;16.90;80.40;;;;;;4996896;28;20057;-75
2022/04/11 11:41:08;;;;;;;11.45;2.88;;;16.80;82.00;;;;;;4996753;28;20030;-73
2022/04/11 11:43:33;;;;;;;11.18;2.88;;;16.60;83.70;;;;;;4996699;28;20041;-74
2022/04/11 11:46:00;;;;;;;13.90;2.42;;;16.50;84.00;;;;;;4996830;28;20105;-75
2022/04/11 11:48:31;;;;;;;10.63;2.85;;;17.40;82.50;;;;;;4996707;28;20038;-73
2022/04/11 11:50:59;;;;;;;16.02;2.85;;;17.60;80.30;;;;;;4996945;28;20018;-73
2022/04/11 11:53:39;;;;;;;8.43;2.30;;;18.40;79.00;;;;;;4996259;28;20382;-74
2022/04/11 11:56:07;;;;;;;8.65;2.10;;;19.50;77.20;;;;;;4996225;28;20022;-75
2022/04/11 11:58:39;;;;;;;12.50;2.53;;;19.60;73.90;;;;;;4996704;28;20045;-75
2022/04/11 12:01:08;;;;;;;14.93;2.50;;;19.20;72.00;;;;;;4996467;28;20752;-74
2022/04/11 12:06:23;;;;;;;12.18;2.50;;;18.40;71.70;;;;;;4995986;28;20042;-73
2022/04/11 12:08:56;;;;;;;10.45;2.78;;;18.10;72.60;;;;;;5016304;28;20466;-73
2022/04/11 12:11:24;;;;;;;8.77;2.33;;;18.10;72.30;;;;;;5015245;28;20030;-73
2022/04/11 12:13:57;;;;;;;13.93;2.47;;;17.80;72.60;;;;;;5018118;28;20402;-74
2022/04/11 12:16:22;;;;;;;10.27;2.13;;;18.80;70.40;;;;;;5020280;28;20032;-74
2022/04/11 12:18:55;;;;;;;11.13;2.40;;;19.90;68.50;;;;;;5015324;28;20105;-73
2022/04/11 12:21:38;;;;;;;9.65;2.15;;;21.00;66.80;;;;;;5016469;28;20026;-73
2022/04/11 12:24:06;;;;;;;11.82;1.95;;;22.80;62.50;;;;;;5016727;28;20053;-74
2022/04/11 12:26:37;;;;;;;8.40;2.10;;;23.10;58.20;;;;;;5016206;28;20026;-74
2022/04/11 12:29:14;;;;;;;7.43;1.73;;;22.70;54.10;;;;;;5016916;28;20106;-74
2022/04/11 12:31:56;;;;;;;9.32;1.92;;;21.80;54.20;;;;;;5018582;28;20030;-73
2022/04/11 12:34:35;;;;;;;5.43;1.75;;;21.20;55.30;;;;;;5022726;28;20104;-75
2022/04/11 12:37:03;;;;;;;6.28;1.92;;;21.50;56.00;;;;;;5017181;28;20437;-74
2022/04/11 12:39:29;;;;;;;6.63;1.75;;;22.80;54.20;;;;;;5020681;28;20030;-73
2022/04/11 12:41:55;;;;;;;7.65;2.00;;;24.40;51.00;;;;;;5018348;28;20041;-74
2022/04/11 12:44:26;;;;;;;8.82;1.70;;;25.70;47.40;;;;;;5017845;28;20036;-74
2022/04/11 12:47:01;;;;;;;8.05;2.00;;;27.20;42.30;;;;;;5017079;28;20116;-75
2022/04/11 12:49:49;;;;;;;8.98;2.20;;;27.10;41.00;;;;;;5015974;28;20097;-74
2022/04/11 12:52:17;;;;;;;6.85;2.47;;;25.70;41.40;;;;;;5016456;28;20025;-73